KPBI/PBI METAR and TAF weather

Enter ICAO airport designator
Station Type Date Time Source
KPBI METAR 2018/12/15 01:53 UTC NOAA

KPBI 150153Z 16008KT 10SM FEW022 BKN250 23/22 A3004 RMK AO2 SLP171 T02330222


Station Type Date Time Source
KPBI Decoded METAR 2018/12/15 01:53 UTC NOAA

PALM BEACH INTERNATIONAL, FL, United States (KPBI) 26-41N 80-06W 6M
Dec 14, 2018 - 08:53 PM EST / 2018.12.15 0153 UTC
Wind: from the SSE (160 degrees) at 9 MPH (8 KT):0
Visibility: 10 mile(s):0
Sky conditions: mostly cloudy
Temperature: 73.9 F (23.3 C)
Dew Point: 72.0 F (22.2 C)
Relative Humidity: 93%
Pressure (altimeter): 30.04 in. Hg (1017 hPa)
ob: KPBI 150153Z 16008KT 10SM FEW022 BKN250 23/22 A3004 RMK AO2 SLP171 T02330222
cycle: 2

Station Type Date Time Source
KPBI TAF 2018/12/14 22:35 UTC NOAA

TAF
AMD KPBI 142228Z 1422/1518 16013KT P6SM SCT025 SCT150 BKN200
FM150700 19010KT P6SM SCT020 BKN040 OVC100 PROB30 1509/1513 TSRA BKN025 BKN035CB
FM151600 21012G22KT P6SM VCSH SCT020 BKN035 OVC050


Example: see airport list